createdAt,value
2018-07-10T00:03:19.972Z,16.50
2018-07-10T00:09:19.202Z,16.42
2018-07-10T00:12:23.520Z,16.37
2018-07-10T00:15:28.222Z,16.37
2018-07-10T00:18:32.715Z,16.38
2018-07-10T00:21:37.284Z,16.30
2018-07-10T00:24:41.643Z,16.26
2018-07-10T00:27:45.999Z,16.26
2018-07-10T00:30:50.488Z,16.31
2018-07-10T00:33:54.805Z,16.33
2018-07-10T00:36:59.206Z,16.21
2018-07-10T00:40:03.540Z,16.15
2018-07-10T00:43:10.757Z,16.14
2018-07-10T00:46:15.101Z,16.06
2018-07-10T00:49:20.438Z,16.07
2018-07-10T00:52:34.418Z,16.13
2018-07-10T00:55:38.765Z,16.07
2018-07-10T00:58:43.063Z,16.07
2018-07-10T01:01:47.327Z,16.10
2018-07-10T01:04:51.672Z,16.13
2018-07-10T01:07:56.889Z,16.09
2018-07-10T01:11:07.781Z,16.13
2018-07-10T01:14:13.356Z,16.06
2018-07-10T01:17:17.913Z,15.89
2018-07-10T01:20:22.228Z,15.74
2018-07-10T01:23:29.785Z,15.77
2018-07-10T01:26:37.718Z,15.76
2018-07-10T01:29:47.316Z,15.69
2018-07-10T01:32:51.990Z,15.68
2018-07-10T01:35:56.669Z,15.65
2018-07-10T01:39:00.977Z,15.73
2018-07-10T01:42:05.581Z,15.64
2018-07-10T01:45:09.866Z,15.62
2018-07-10T01:48:14.235Z,15.69
2018-07-10T01:51:19.413Z,15.59
2018-07-10T01:54:23.757Z,15.62
2018-07-10T01:57:28.452Z,15.64
2018-07-10T02:00:55.186Z,15.64
2018-07-10T02:04:01.764Z,15.68
2018-07-10T02:07:06.588Z,15.73
2018-07-10T02:10:11.045Z,15.74
2018-07-10T02:13:15.335Z,15.64
2018-07-10T02:16:19.638Z,15.49
2018-07-10T02:19:24.789Z,15.52
2018-07-10T02:22:29.193Z,15.60
2018-07-10T02:25:33.548Z,15.66
2018-07-10T02:28:37.852Z,15.68
2018-07-10T02:31:42.124Z,15.70
2018-07-10T02:34:46.534Z,15.68
2018-07-10T02:37:50.821Z,15.71
2018-07-10T02:40:55.560Z,15.77
2018-07-10T02:44:02.774Z,15.73
2018-07-10T02:47:08.477Z,15.72
2018-07-10T02:50:12.973Z,15.77
2018-07-10T02:53:17.261Z,15.71
2018-07-10T02:56:22.556Z,15.68
2018-07-10T02:59:36.794Z,15.65
2018-07-10T03:02:41.063Z,15.72
2018-07-10T03:05:45.628Z,15.74
2018-07-10T03:08:49.940Z,15.70
2018-07-10T03:11:54.212Z,15.77
2018-07-10T03:15:04.711Z,15.73
2018-07-10T03:18:09.056Z,15.65
2018-07-10T03:21:13.482Z,15.65
2018-07-10T03:24:17.927Z,15.63
2018-07-10T03:27:22.450Z,15.65
2018-07-10T03:30:26.729Z,15.64
2018-07-10T03:33:31.336Z,15.65
2018-07-10T03:36:35.637Z,15.63
2018-07-10T03:39:41.856Z,15.68
2018-07-10T03:42:46.737Z,15.71
2018-07-10T03:45:52.146Z,15.74
2018-07-10T03:48:57.032Z,15.75
2018-07-10T03:52:03.808Z,15.79
2018-07-10T03:55:12.805Z,15.83
2018-07-10T03:58:17.343Z,15.87
2018-07-10T04:01:21.726Z,15.94
2018-07-10T04:04:26.701Z,15.96
2018-07-10T04:07:31.726Z,15.99
2018-07-10T04:10:38.341Z,16.04
2018-07-10T04:13:42.766Z,16.04
2018-07-10T04:16:47.817Z,16.12
2018-07-10T04:19:52.118Z,16.14
2018-07-10T04:22:56.636Z,16.30
2018-07-10T04:26:02.504Z,16.17
2018-07-10T04:29:14.920Z,16.18
2018-07-10T04:32:20.517Z,16.15
2018-07-10T04:35:28.050Z,16.24
2018-07-10T04:38:32.922Z,16.20
2018-07-10T04:41:41.095Z,16.24
2018-07-10T04:44:45.491Z,16.38
2018-07-10T04:47:57.633Z,16.46
2018-07-10T04:51:47.341Z,16.70
2018-07-10T04:55:11.990Z,16.74
2018-07-10T04:58:22.367Z,16.82
2018-07-10T05:01:34.772Z,16.94
2018-07-10T05:04:39.132Z,17.12
2018-07-10T05:07:44.882Z,17.18
2018-07-10T05:10:51.520Z,17.22
2018-07-10T05:13:55.849Z,17.30
2018-07-10T05:17:00.330Z,17.36
2018-07-10T05:20:05.154Z,17.39
2018-07-10T05:23:12.536Z,17.27
2018-07-10T05:26:19.949Z,17.48
2018-07-10T05:29:24.320Z,17.69
2018-07-10T05:32:30.223Z,17.73
2018-07-10T05:35:34.886Z,17.67
2018-07-10T05:38:40.367Z,17.66
2018-07-10T05:41:46.845Z,17.88
2018-07-10T05:44:51.257Z,17.84
2018-07-10T05:48:02.320Z,18.01
2018-07-10T05:51:06.739Z,17.93
2018-07-10T05:54:11.091Z,17.79
2018-07-10T05:57:16.145Z,17.96
2018-07-10T06:00:20.430Z,18.19
2018-07-10T06:03:24.740Z,18.14
2018-07-10T06:06:29.078Z,18.15
2018-07-10T06:09:33.368Z,18.17
2018-07-10T06:12:37.730Z,18.60
2018-07-10T06:15:42.577Z,18.78
2018-07-10T06:18:46.889Z,19.02
2018-07-10T06:21:52.652Z,19.13
2018-07-10T06:25:03.226Z,18.63
2018-07-10T06:28:12.071Z,18.00
2018-07-10T06:31:21.282Z,17.56
2018-07-10T06:34:34.754Z,17.30
2018-07-10T06:37:42.962Z,17.37
2018-07-10T06:40:50.917Z,17.55
2018-07-10T06:43:59.389Z,17.56
2018-07-10T06:47:06.068Z,17.56
2018-07-10T06:50:10.338Z,17.54
2018-07-10T06:53:15.128Z,17.60
2018-07-10T06:56:34.381Z,17.91
2018-07-10T06:59:38.889Z,18.44
2018-07-10T07:02:43.379Z,18.67
2018-07-10T07:05:48.352Z,20.21
2018-07-10T07:08:53.232Z,19.62
2018-07-10T07:11:58.419Z,19.23
2018-07-10T07:15:05.874Z,18.47
2018-07-10T07:18:10.917Z,18.42
2018-07-10T07:21:15.393Z,18.38
2018-07-10T07:24:20.300Z,17.74
2018-07-10T07:27:24.880Z,17.58
2018-07-10T07:30:29.584Z,17.50
2018-07-10T07:33:35.315Z,17.63
2018-07-10T07:36:40.085Z,17.95
2018-07-10T07:39:45.909Z,17.96
2018-07-10T07:42:50.293Z,17.86
2018-07-10T07:45:56.629Z,18.23
2018-07-10T07:49:00.961Z,17.64
2018-07-10T07:52:05.461Z,17.39
2018-07-10T07:55:09.808Z,17.57
2018-07-10T07:58:14.301Z,17.13
2018-07-10T08:01:18.751Z,17.16
2018-07-10T08:04:23.110Z,17.14
2018-07-10T08:07:28.076Z,17.33
2018-07-10T08:10:32.960Z,17.70
2018-07-10T08:13:37.485Z,17.62
2018-07-10T08:16:41.781Z,17.69
2018-07-10T08:19:47.198Z,17.72
2018-07-10T08:22:51.927Z,17.56
2018-07-10T08:25:56.905Z,17.19
2018-07-10T08:29:02.408Z,17.39
2018-07-10T08:32:06.785Z,17.99
2018-07-10T08:35:11.938Z,18.11
2018-07-10T08:38:42.204Z,18.52
2018-07-10T08:41:47.861Z,19.23
2018-07-10T08:44:52.699Z,19.32
2018-07-10T08:47:58.410Z,19.18
2018-07-10T08:51:03.401Z,18.92
2018-07-10T08:54:09.081Z,19.15
2018-07-10T08:57:13.489Z,19.77
2018-07-10T09:00:19.145Z,19.90
2018-07-10T09:03:24.572Z,19.93
2018-07-10T09:06:29.189Z,19.94
2018-07-10T09:09:33.488Z,19.85
2018-07-10T09:12:37.781Z,19.77
2018-07-10T09:15:42.045Z,20.13
2018-07-10T09:18:47.185Z,19.99
2018-07-10T09:22:10.067Z,20.28
2018-07-10T09:25:14.349Z,20.59
2018-07-10T09:28:18.626Z,20.63
2018-07-10T09:31:22.996Z,21.57
2018-07-10T09:34:27.301Z,21.67
2018-07-10T09:37:36.757Z,21.94
2018-07-10T09:40:41.097Z,22.24
2018-07-10T09:43:46.688Z,22.34
2018-07-10T09:46:51.222Z,22.85
2018-07-10T09:49:55.652Z,21.90
2018-07-10T09:53:01.653Z,21.61
2018-07-10T09:56:05.957Z,21.87
2018-07-10T09:59:11.008Z,22.29
2018-07-10T10:02:22.123Z,21.64
2018-07-10T10:05:28.226Z,20.82
2018-07-10T10:08:33.309Z,20.94
2018-07-10T10:11:37.981Z,21.00
2018-07-10T10:14:42.493Z,20.96
2018-07-10T10:17:48.002Z,21.44
2018-07-10T10:20:52.697Z,20.51
2018-07-10T10:23:58.768Z,20.67
2018-07-10T10:27:04.264Z,20.63
2018-07-10T10:30:08.681Z,20.04
2018-07-10T10:33:13.477Z,19.63
2018-07-10T10:36:18.153Z,19.89
2018-07-10T10:39:22.516Z,20.70
2018-07-10T10:42:28.819Z,21.14
2018-07-10T10:45:37.221Z,21.32
2018-07-10T10:48:41.576Z,21.21
2018-07-10T10:51:45.924Z,20.99
2018-07-10T10:54:51.124Z,20.64
2018-07-10T10:57:55.968Z,20.43
2018-07-10T11:01:00.299Z,20.68
2018-07-10T11:04:05.704Z,21.27
2018-07-10T11:07:10.027Z,21.49
2018-07-10T11:10:14.316Z,21.55
2018-07-10T11:13:19.421Z,21.45
2018-07-10T11:16:24.594Z,22.24
2018-07-10T11:19:39.528Z,22.11
2018-07-10T11:22:56.572Z,22.13
2018-07-10T11:26:08.856Z,22.11
2018-07-10T11:29:13.848Z,22.40
2018-07-10T11:32:18.173Z,22.09
2018-07-10T11:35:22.573Z,22.78
2018-07-10T11:38:26.877Z,22.89
2018-07-10T11:41:33.038Z,21.77
2018-07-10T11:44:37.374Z,21.19
2018-07-10T11:47:41.830Z,21.29
2018-07-10T11:50:47.747Z,21.44
2018-07-10T11:53:52.033Z,21.53
2018-07-10T11:56:56.529Z,22.20
2018-07-10T12:00:01.014Z,22.18
2018-07-10T12:03:07.049Z,22.48
2018-07-10T12:06:12.609Z,22.82
2018-07-10T12:09:18.064Z,22.94
2018-07-10T12:12:22.661Z,22.54
2018-07-10T12:15:27.565Z,22.87
2018-07-10T12:18:32.658Z,23.16
2018-07-10T12:21:37.133Z,22.57
2018-07-10T12:24:42.193Z,22.22
2018-07-10T12:27:46.505Z,22.23
2018-07-10T12:30:50.865Z,22.05
2018-07-10T12:33:55.410Z,22.16
2018-07-10T12:36:59.934Z,22.30
2018-07-10T12:40:04.778Z,22.45
2018-07-10T12:43:09.930Z,22.34
2018-07-10T12:46:17.021Z,22.12
2018-07-10T12:49:21.688Z,22.73
2018-07-10T12:52:26.666Z,22.87
2018-07-10T12:55:31.199Z,22.95
2018-07-10T12:58:39.801Z,22.75
2018-07-10T13:01:44.443Z,22.93
2018-07-10T13:04:48.787Z,23.23
2018-07-10T13:07:53.197Z,23.12
2018-07-10T13:10:57.521Z,23.01
2018-07-10T13:14:01.937Z,22.93
2018-07-10T13:17:07.281Z,23.44
2018-07-10T13:20:11.822Z,23.01
2018-07-10T13:23:16.144Z,23.61
2018-07-10T13:26:20.653Z,23.48
2018-07-10T13:29:25.145Z,23.45
2018-07-10T13:32:29.521Z,23.20
2018-07-10T13:35:36.103Z,23.20
2018-07-10T13:38:41.656Z,23.62
2018-07-10T13:41:45.977Z,23.61
2018-07-10T13:44:50.381Z,23.48
2018-07-10T13:48:03.822Z,23.56
2018-07-10T13:51:08.986Z,23.06
2018-07-10T13:54:13.662Z,23.39
2018-07-10T13:57:18.120Z,23.46
2018-07-10T14:00:23.465Z,23.59
2018-07-10T14:03:28.506Z,23.78
2018-07-10T14:06:32.896Z,23.51
2018-07-10T14:09:37.324Z,23.31
2018-07-10T14:12:42.093Z,23.45
2018-07-10T14:15:47.601Z,23.35
2018-07-10T14:18:55.508Z,23.41
2018-07-10T14:22:04.512Z,23.46
2018-07-10T14:25:14.466Z,23.43
2018-07-10T14:28:19.276Z,23.47
2018-07-10T14:31:23.362Z,23.34
2018-07-10T14:34:27.823Z,22.96
2018-07-10T14:37:33.454Z,23.33
2018-07-10T14:40:48.491Z,23.71
2018-07-10T14:43:52.949Z,24.01
2018-07-10T14:46:58.549Z,24.19
2018-07-10T14:50:03.775Z,23.90
2018-07-10T14:53:08.329Z,23.85
2018-07-10T14:56:13.401Z,23.38
2018-07-10T14:59:17.969Z,23.19
2018-07-10T15:02:23.698Z,22.94
2018-07-10T15:05:28.346Z,22.62
2018-07-10T15:08:32.765Z,22.09
2018-07-10T15:11:37.315Z,20.07
2018-07-10T15:14:42.001Z,19.95
2018-07-10T15:17:51.533Z,19.61
2018-07-10T15:20:56.121Z,18.89
2018-07-10T15:24:02.484Z,18.70
2018-07-10T15:27:07.045Z,19.12
2018-07-10T15:30:11.413Z,18.92
2018-07-10T15:33:16.328Z,18.54
2018-07-10T15:36:20.670Z,18.44
2018-07-10T15:39:25.551Z,18.36
2018-07-10T15:42:30.537Z,18.60
2018-07-10T15:45:35.165Z,18.18
2018-07-10T15:48:39.476Z,18.29
2018-07-10T15:51:44.260Z,17.97
2018-07-10T15:54:49.452Z,18.40
2018-07-10T15:57:53.823Z,18.36
2018-07-10T16:00:58.287Z,18.26
2018-07-10T16:04:03.011Z,18.40
2018-07-10T16:07:07.504Z,18.57
2018-07-10T16:10:12.002Z,18.36
2018-07-10T16:13:17.927Z,18.62
2018-07-10T16:16:22.783Z,18.92
2018-07-10T16:19:41.365Z,18.33
2018-07-10T16:22:46.253Z,18.73
2018-07-10T16:25:51.180Z,18.88
2018-07-10T16:28:56.333Z,18.51
2018-07-10T16:32:05.301Z,18.39
2018-07-10T16:35:10.996Z,18.14
2018-07-10T16:38:16.064Z,18.36
2018-07-10T16:41:27.078Z,18.47
2018-07-10T16:44:33.071Z,18.15
2018-07-10T16:48:15.625Z,18.04
2018-07-10T16:51:47.785Z,17.88
2018-07-10T16:54:53.832Z,17.94
2018-07-10T16:57:59.875Z,18.04
2018-07-10T17:01:06.880Z,17.70
2018-07-10T17:04:12.400Z,17.70
2018-07-10T17:07:18.456Z,17.70
2018-07-10T17:10:24.202Z,17.49
2018-07-10T17:13:28.885Z,17.33
2018-07-10T17:16:34.917Z,17.15
2018-07-10T17:19:40.562Z,17.27
2018-07-10T17:22:45.564Z,17.45
2018-07-10T17:25:51.305Z,17.33
2018-07-10T17:28:57.688Z,17.39
2018-07-10T17:32:02.242Z,17.21
2018-07-10T17:35:06.991Z,17.17
2018-07-10T17:38:12.695Z,17.02
2018-07-10T17:41:17.452Z,17.22
2018-07-10T17:44:22.810Z,17.31
2018-07-10T17:47:27.591Z,17.26
2018-07-10T17:50:31.652Z,17.24
2018-07-10T17:53:36.749Z,17.18
2018-07-10T17:56:41.114Z,17.23
2018-07-10T17:59:46.771Z,17.18
2018-07-10T18:02:51.113Z,17.09
2018-07-10T18:05:55.605Z,17.17
2018-07-10T18:09:00.643Z,17.01
2018-07-10T18:12:05.105Z,16.72
2018-07-10T18:15:09.739Z,16.82
2018-07-10T18:18:15.583Z,17.00
2018-07-10T18:21:20.016Z,17.12
2018-07-10T18:24:26.228Z,16.94
2018-07-10T18:27:30.902Z,17.06
2018-07-10T18:30:35.213Z,17.17
2018-07-10T18:33:39.655Z,17.18
2018-07-10T18:36:44.056Z,17.15
2018-07-10T18:39:48.793Z,16.93
2018-07-10T18:42:55.945Z,16.99
2018-07-10T18:46:00.595Z,16.96
2018-07-10T18:49:05.418Z,16.86
2018-07-10T18:52:09.792Z,16.79
2018-07-10T18:55:15.721Z,16.94
2018-07-10T18:58:49.158Z,17.08
2018-07-10T19:02:07.251Z,16.92
2018-07-10T19:05:11.781Z,17.01
2018-07-10T19:08:16.892Z,16.83
2018-07-10T19:11:27.343Z,16.85
2018-07-10T19:14:31.750Z,16.87
2018-07-10T19:17:36.693Z,16.82
2018-07-10T19:20:52.280Z,16.88
2018-07-10T19:24:00.898Z,16.82
2018-07-10T19:27:06.154Z,16.88
2018-07-10T19:30:11.404Z,16.78
2018-07-10T19:33:15.715Z,16.90
2018-07-10T19:36:20.564Z,16.82
2018-07-10T19:39:25.545Z,16.79
2018-07-10T19:42:32.719Z,16.69
2018-07-10T19:45:37.810Z,16.71
2018-07-10T19:48:45.866Z,16.68
2018-07-10T19:51:50.592Z,16.68
2018-07-10T19:54:55.888Z,16.68
2018-07-10T19:58:15.618Z,16.74
2018-07-10T20:01:56.328Z,16.74
2018-07-10T20:05:06.224Z,16.69
2018-07-10T20:08:16.487Z,16.61
2018-07-10T20:11:32.490Z,16.66
2018-07-10T20:14:46.088Z,16.69
2018-07-10T20:18:10.713Z,16.63
2018-07-10T20:21:20.010Z,16.60
2018-07-10T20:24:24.897Z,16.59
2018-07-10T20:27:54.717Z,16.53
2018-07-10T20:31:25.331Z,16.43
2018-07-10T20:34:41.505Z,16.47
2018-07-10T20:37:49.334Z,16.47
2018-07-10T20:40:55.366Z,16.57
2018-07-10T20:44:01.309Z,16.62
2018-07-10T20:47:06.322Z,16.60
2018-07-10T20:50:10.461Z,16.49
2018-07-10T20:54:29.556Z,16.51
2018-07-10T20:57:42.638Z,16.39
2018-07-10T21:01:01.732Z,16.48
2018-07-10T21:04:21.220Z,16.50
2018-07-10T21:07:30.206Z,16.43
2018-07-10T21:10:42.794Z,16.37
2018-07-10T21:13:59.901Z,16.27
2018-07-10T21:17:11.030Z,16.29
2018-07-10T21:20:28.908Z,16.22
2018-07-10T21:23:54.375Z,16.33
2018-07-10T21:27:05.380Z,16.26
2018-07-10T21:30:19.967Z,16.21
2018-07-10T21:33:39.157Z,16.23
2018-07-10T21:39:16.034Z,16.30
2018-07-10T21:42:35.675Z,16.10
2018-07-10T21:46:13.685Z,16.07
2018-07-10T21:49:28.738Z,16.16
2018-07-10T21:52:33.653Z,16.15
2018-07-10T21:55:37.973Z,16.14
2018-07-10T21:58:42.266Z,16.21
2018-07-10T22:01:58.445Z,16.31
2018-07-10T22:05:03.475Z,16.21
2018-07-10T22:08:07.853Z,16.19
2018-07-10T22:11:12.317Z,16.12
2018-07-10T22:14:18.321Z,16.05
2018-07-10T22:17:25.057Z,16.08
2018-07-10T22:20:29.398Z,16.02
2018-07-10T22:23:33.936Z,15.92
2018-07-10T22:26:39.373Z,15.89
2018-07-10T22:29:48.985Z,15.88
2018-07-10T22:32:54.409Z,15.81
2018-07-10T22:35:59.769Z,15.87
2018-07-10T22:39:05.067Z,15.93
2018-07-10T22:42:09.411Z,15.93
2018-07-10T22:45:14.225Z,15.88
2018-07-10T22:48:18.577Z,15.80
2018-07-10T22:51:22.869Z,15.77
2018-07-10T22:54:27.553Z,15.71
2018-07-10T22:57:31.987Z,15.75
2018-07-10T23:00:38.179Z,15.76
2018-07-10T23:03:42.565Z,15.69
2018-07-10T23:06:47.311Z,15.71
2018-07-10T23:09:52.479Z,15.70
2018-07-10T23:12:56.937Z,15.70
2018-07-10T23:16:01.449Z,15.69
2018-07-10T23:19:07.298Z,15.64
2018-07-10T23:22:11.620Z,15.64
2018-07-10T23:25:16.961Z,15.58
2018-07-10T23:28:22.181Z,15.57
2018-07-10T23:31:29.555Z,15.58
2018-07-10T23:34:34.006Z,15.59
2018-07-10T23:37:40.148Z,15.59
2018-07-10T23:40:44.698Z,15.56
2018-07-10T23:43:49.701Z,15.48
2018-07-10T23:47:00.222Z,15.55
2018-07-10T23:50:19.539Z,15.50
2018-07-10T23:53:51.149Z,15.50
2018-07-10T23:56:55.480Z,15.48
2018-07-10T23:59:59.809Z,15.47
